createdAt,value
2023-01-08T00:04:40.807Z,8.90
2023-01-08T00:10:34.184Z,8.90
2023-01-08T00:16:27.761Z,8.80
2023-01-08T00:22:22.530Z,8.90
2023-01-08T00:28:16.432Z,8.90
2023-01-08T00:34:10.019Z,8.90
2023-01-08T00:40:05.222Z,9.00
2023-01-08T00:45:58.713Z,9.00
2023-01-08T00:51:52.148Z,9.00
2023-01-08T00:57:47.129Z,9.00
2023-01-08T01:03:40.808Z,9.00
2023-01-08T01:09:33.837Z,8.90
2023-01-08T01:15:28.661Z,8.90
2023-01-08T01:21:24.846Z,8.90
2023-01-08T01:27:19.431Z,8.90
2023-01-08T01:33:14.186Z,8.90
2023-01-08T01:39:07.919Z,8.90
2023-01-08T01:45:01.643Z,9.00
2023-01-08T01:50:56.542Z,9.00
2023-01-08T01:57:03.048Z,9.10
2023-01-08T02:02:56.852Z,9.10
2023-01-08T02:09:01.924Z,9.10
2023-01-08T02:15:04.711Z,9.20
2023-01-08T02:21:02.505Z,9.20
2023-01-08T02:27:00.969Z,9.10
2023-01-08T02:32:54.423Z,9.10
2023-01-08T02:39:07.965Z,9.10
2023-01-08T02:45:10.713Z,9.20
2023-01-08T02:51:08.909Z,9.20
2023-01-08T02:57:07.245Z,9.20
2023-01-08T03:03:09.139Z,9.20
2023-01-08T03:09:03.079Z,9.20
2023-01-08T03:15:01.378Z,9.20
2023-01-08T03:20:56.913Z,9.20
2023-01-08T03:26:52.945Z,9.20
2023-01-08T03:32:48.149Z,9.20
2023-01-08T03:38:46.484Z,9.20
2023-01-08T03:44:40.113Z,9.20
2023-01-08T03:50:34.734Z,9.30
2023-01-08T03:56:29.527Z,9.20
2023-01-08T04:02:23.020Z,9.20
2023-01-08T04:08:16.497Z,9.20
2023-01-08T04:14:12.631Z,9.30
2023-01-08T04:20:06.556Z,9.20
2023-01-08T04:26:00.109Z,9.30
2023-01-08T04:31:54.912Z,9.30
2023-01-08T04:37:48.317Z,9.30
2023-01-08T04:43:41.722Z,9.20
2023-01-08T04:49:36.516Z,9.30
2023-01-08T04:55:30.018Z,9.30
2023-01-08T05:01:25.436Z,9.40
2023-01-08T05:07:20.214Z,9.30
2023-01-08T05:13:13.587Z,9.40
2023-01-08T05:19:07.010Z,9.40
2023-01-08T05:25:01.789Z,9.40
2023-01-08T05:30:55.745Z,9.40
2023-01-08T05:36:49.186Z,9.40
2023-01-08T05:42:44.113Z,9.40
2023-01-08T05:48:39.064Z,9.40
2023-01-08T05:54:32.433Z,9.30
2023-01-08T06:00:26.856Z,9.30
2023-01-08T06:06:20.300Z,9.30
2023-01-08T06:12:13.750Z,9.20
2023-01-08T06:18:08.604Z,9.20
2023-01-08T06:24:02.062Z,9.30
2023-01-08T06:29:56.773Z,9.20
2023-01-08T06:35:51.574Z,9.20
2023-01-08T06:41:45.381Z,9.30
2023-01-08T06:47:38.818Z,9.20
2023-01-08T06:53:33.834Z,9.20
2023-01-08T06:59:27.285Z,9.20
2023-01-08T07:05:20.335Z,9.20
2023-01-08T07:11:15.964Z,9.20
2023-01-08T07:17:09.593Z,9.20
2023-01-08T07:23:04.226Z,9.20
2023-01-08T07:29:00.085Z,9.20
2023-01-08T07:34:54.792Z,9.10
2023-01-08T07:40:48.392Z,9.20
2023-01-08T07:46:43.383Z,9.20
2023-01-08T07:52:36.849Z,9.30
2023-01-08T07:58:30.311Z,9.30
2023-01-08T08:04:24.901Z,9.20
2023-01-08T08:10:18.451Z,9.30
2023-01-08T08:16:12.828Z,9.20
2023-01-08T08:22:07.648Z,9.30
2023-01-08T08:28:02.438Z,9.20
2023-01-08T08:33:55.959Z,9.20
2023-01-08T08:39:50.816Z,9.10
2023-01-08T08:45:44.204Z,9.10
2023-01-08T08:51:37.641Z,9.00
2023-01-08T08:57:32.408Z,9.00
2023-01-08T09:03:25.847Z,9.10
2023-01-08T09:09:20.277Z,9.00
2023-01-08T09:15:15.109Z,9.20
2023-01-08T09:21:09.803Z,9.20
2023-01-08T09:27:03.237Z,9.20
2023-01-08T09:33:02.325Z,9.20
2023-01-08T09:38:56.237Z,9.20
2023-01-08T09:44:52.032Z,9.20
2023-01-08T09:50:49.271Z,9.20
2023-01-08T09:56:43.199Z,9.30
2023-01-08T10:02:39.378Z,9.40
2023-01-08T10:08:33.750Z,9.40
2023-01-08T10:14:29.583Z,9.40
2023-01-08T10:20:25.318Z,9.40
2023-01-08T10:26:32.526Z,9.40
2023-01-08T10:32:30.527Z,9.40
2023-01-08T10:38:33.264Z,9.40
2023-01-08T10:44:28.635Z,9.40
2023-01-08T10:50:26.392Z,9.40
2023-01-08T10:56:24.222Z,9.50
2023-01-08T11:02:31.799Z,9.50
2023-01-08T11:08:26.326Z,9.40
2023-01-08T11:14:24.531Z,9.50
2023-01-08T11:20:24.080Z,9.50
2023-01-08T11:26:20.603Z,9.60
2023-01-08T11:32:38.704Z,9.40
2023-01-08T11:38:34.206Z,9.40
2023-01-08T11:44:39.866Z,9.40
2023-01-08T11:50:42.440Z,9.60
2023-01-08T11:56:51.264Z,9.80
2023-01-08T12:02:55.718Z,10.10
2023-01-08T12:08:57.089Z,10.00
2023-01-08T12:14:59.981Z,10.60
2023-01-08T12:21:02.302Z,10.90
2023-01-08T12:27:05.025Z,11.40
2023-01-08T12:33:05.828Z,12.40
2023-01-08T12:39:05.611Z,12.80
2023-01-08T12:45:03.385Z,13.00
2023-01-08T12:51:06.428Z,13.50
2023-01-08T12:57:04.609Z,13.00
2023-01-08T13:03:00.643Z,12.30
2023-01-08T13:08:56.997Z,12.00
2023-01-08T13:14:54.261Z,12.70
2023-01-08T13:20:58.126Z,13.30
2023-01-08T13:26:52.976Z,13.50
2023-01-08T13:32:48.462Z,13.30
2023-01-08T13:38:42.552Z,13.10
2023-01-08T13:44:42.935Z,13.40
2023-01-08T13:50:39.091Z,13.50
2023-01-08T13:56:33.470Z,13.40
2023-01-08T14:02:42.850Z,13.60
2023-01-08T14:08:36.559Z,13.20
2023-01-08T14:14:30.260Z,13.10
2023-01-08T14:20:33.962Z,12.90
2023-01-08T14:26:31.139Z,12.80
2023-01-08T14:32:27.475Z,12.70
2023-01-08T14:38:21.976Z,12.60
2023-01-08T14:44:17.461Z,12.40
2023-01-08T14:50:20.395Z,12.00
2023-01-08T14:56:18.468Z,11.80
2023-01-08T15:02:27.408Z,11.70
2023-01-08T15:08:26.970Z,11.20
2023-01-08T15:14:25.912Z,11.00
2023-01-08T15:20:21.972Z,10.80
2023-01-08T15:26:16.992Z,10.70
2023-01-08T15:32:13.484Z,10.50
2023-01-08T15:38:09.238Z,10.50
2023-01-08T15:44:02.646Z,10.50
2023-01-08T15:49:57.350Z,10.40
2023-01-08T15:55:51.137Z,10.20
2023-01-08T16:01:44.643Z,10.10
2023-01-08T16:07:40.963Z,10.00
2023-01-08T16:13:34.484Z,10.00
2023-01-08T16:19:28.104Z,9.90
2023-01-08T16:25:24.483Z,9.80
2023-01-08T16:31:17.961Z,9.70
2023-01-08T16:37:11.383Z,9.70
2023-01-08T16:43:06.110Z,9.80
2023-01-08T16:48:59.689Z,9.70
2023-01-08T16:54:54.162Z,9.60
2023-01-08T17:00:48.991Z,9.60
2023-01-08T17:06:42.467Z,9.50
2023-01-08T17:12:35.946Z,9.60
2023-01-08T17:18:30.695Z,9.70
2023-01-08T17:24:24.161Z,9.60
2023-01-08T17:30:17.710Z,9.60
2023-01-08T17:36:14.668Z,9.60
2023-01-08T17:42:25.675Z,9.60
2023-01-08T17:48:19.058Z,9.40
2023-01-08T17:54:16.554Z,9.40
2023-01-08T18:00:11.262Z,9.40
2023-01-08T18:06:07.803Z,9.40
2023-01-08T18:12:02.613Z,9.00
2023-01-08T18:17:56.028Z,8.90
2023-01-08T18:23:49.495Z,8.60
2023-01-08T18:29:44.927Z,8.70
2023-01-08T18:35:39.423Z,8.60
2023-01-08T18:41:50.465Z,8.60
2023-01-08T18:47:44.796Z,8.70
2023-01-08T18:53:38.288Z,8.50
2023-01-08T18:59:31.752Z,8.50
2023-01-08T19:05:26.144Z,8.40
2023-01-08T19:11:20.276Z,8.50
2023-01-08T19:17:13.681Z,8.30
2023-01-08T19:23:08.441Z,8.30
2023-01-08T19:29:04.100Z,8.30
2023-01-08T19:34:59.399Z,8.30
2023-01-08T19:40:58.841Z,8.30
2023-01-08T19:46:52.261Z,8.20
2023-01-08T19:52:45.701Z,8.10
2023-01-08T19:58:40.964Z,8.00
2023-01-08T20:04:35.502Z,7.90
2023-01-08T20:10:28.975Z,7.90
2023-01-08T20:16:26.291Z,7.80
2023-01-08T20:22:19.859Z,7.80
2023-01-08T20:28:13.333Z,7.80
2023-01-08T20:34:12.137Z,8.00
2023-01-08T20:40:06.167Z,8.00
2023-01-08T20:45:59.787Z,7.80
2023-01-08T20:51:59.156Z,7.80
2023-01-08T20:57:54.194Z,7.80
2023-01-08T21:03:48.405Z,7.90
2023-01-08T21:09:44.656Z,8.00
2023-01-08T21:15:39.684Z,8.00
2023-01-08T21:21:35.544Z,7.90
2023-01-08T21:27:30.301Z,7.80
2023-01-08T21:33:25.316Z,7.60
2023-01-08T21:39:18.903Z,7.70
2023-01-08T21:45:30.043Z,7.80
2023-01-08T21:51:40.824Z,7.90
2023-01-08T21:57:40.641Z,7.80
2023-01-08T22:03:35.404Z,7.80
2023-01-08T22:09:28.813Z,7.90
2023-01-08T22:15:22.229Z,7.90
2023-01-08T22:21:17.207Z,7.90
2023-01-08T22:27:11.125Z,8.00
2023-01-08T22:33:04.544Z,8.00
2023-01-08T22:38:59.362Z,7.90
2023-01-08T22:44:52.788Z,7.80
2023-01-08T22:50:46.272Z,7.90
2023-01-08T22:56:42.456Z,8.10
2023-01-08T23:02:36.403Z,7.90
2023-01-08T23:08:29.504Z,8.00
2023-01-08T23:14:24.433Z,8.00
2023-01-08T23:20:19.416Z,8.00
2023-01-08T23:26:16.427Z,8.00
2023-01-08T23:32:11.241Z,8.00
2023-01-08T23:38:06.033Z,7.80
2023-01-08T23:44:01.401Z,7.80
2023-01-08T23:49:56.337Z,7.80
2023-01-08T23:55:49.881Z,7.70
